createdAt,value
2017-06-03T00:00:01.171Z,22.57
2017-06-03T00:01:15.690Z,22.58
2017-06-03T00:02:29.659Z,22.57
2017-06-03T00:03:43.936Z,22.56
2017-06-03T00:04:58.299Z,22.59
2017-06-03T00:06:12.695Z,22.6
2017-06-03T00:07:27.697Z,22.62
2017-06-03T00:08:41.708Z,22.63
2017-06-03T00:09:56.074Z,22.64
2017-06-03T00:11:11.521Z,22.65
2017-06-03T00:12:25.858Z,22.65
2017-06-03T00:13:40.608Z,22.66
2017-06-03T00:14:55.035Z,22.66
2017-06-03T00:16:09.390Z,22.68
2017-06-03T00:17:23.822Z,22.67
2017-06-03T00:18:37.914Z,22.67
2017-06-03T00:19:52.175Z,22.67
2017-06-03T00:21:06.535Z,22.68
2017-06-03T00:22:20.816Z,22.69
2017-06-03T00:23:35.452Z,22.68
2017-06-03T00:24:50.065Z,22.66
2017-06-03T00:26:04.292Z,22.61
2017-06-03T00:27:18.258Z,22.56
2017-06-03T00:28:32.233Z,22.51
2017-06-03T00:29:47.476Z,22.46
2017-06-03T00:31:02.082Z,22.43
2017-06-03T00:32:16.301Z,22.42
2017-06-03T00:33:30.681Z,22.41
2017-06-03T00:34:45.000Z,22.4
2017-06-03T00:35:59.211Z,22.36
2017-06-03T00:37:13.800Z,22.31
2017-06-03T00:38:28.518Z,22.25
2017-06-03T00:39:42.760Z,22.19
2017-06-03T00:40:56.952Z,22.14
2017-06-03T00:42:11.561Z,22.08
2017-06-03T00:43:25.478Z,22.03
2017-06-03T00:44:40.079Z,21.98
2017-06-03T00:45:54.492Z,21.94
2017-06-03T00:47:08.801Z,21.88
2017-06-03T00:48:23.525Z,21.84
2017-06-03T00:49:37.513Z,21.79
2017-06-03T00:50:51.550Z,21.75
2017-06-03T00:52:05.938Z,21.71
2017-06-03T00:53:20.275Z,21.69
2017-06-03T00:54:35.524Z,21.67
2017-06-03T00:55:50.482Z,21.65
2017-06-03T00:57:05.428Z,21.62
2017-06-03T00:58:19.798Z,21.59
2017-06-03T00:59:34.971Z,21.56
2017-06-03T01:00:49.966Z,21.55
2017-06-03T01:02:04.601Z,21.56
2017-06-03T01:03:18.518Z,21.56
2017-06-03T01:04:34.306Z,21.6
2017-06-03T01:05:49.250Z,21.62
2017-06-03T01:07:03.897Z,21.66
2017-06-03T01:08:18.028Z,21.7
2017-06-03T01:09:32.063Z,21.72
2017-06-03T01:10:46.019Z,21.73
2017-06-03T01:12:00.792Z,21.72
2017-06-03T01:13:15.646Z,21.7
2017-06-03T01:14:29.782Z,21.68
2017-06-03T01:15:44.395Z,21.66
2017-06-03T01:16:58.653Z,21.62
2017-06-03T01:18:13.290Z,21.59
2017-06-03T01:19:28.549Z,21.56
2017-06-03T01:20:43.237Z,21.54
2017-06-03T01:21:57.488Z,21.49
2017-06-03T01:23:11.882Z,21.46
2017-06-03T01:24:26.545Z,21.42
2017-06-03T01:25:41.604Z,21.4
2017-06-03T01:26:55.918Z,21.38
2017-06-03T01:28:10.696Z,21.37
2017-06-03T01:29:24.654Z,21.37
2017-06-03T01:30:38.992Z,21.38
2017-06-03T01:31:53.654Z,21.36
2017-06-03T01:33:07.591Z,21.33
2017-06-03T01:34:21.488Z,21.3
2017-06-03T01:35:35.918Z,21.29
2017-06-03T01:36:49.841Z,21.29
2017-06-03T01:38:04.751Z,21.29
2017-06-03T01:39:19.890Z,21.27
2017-06-03T01:40:35.050Z,21.26
2017-06-03T01:41:50.161Z,21.25
2017-06-03T01:43:05.489Z,21.26
2017-06-03T01:44:19.710Z,21.27
2017-06-03T01:45:34.059Z,21.28
2017-06-03T01:46:48.526Z,21.29
2017-06-03T01:48:02.467Z,21.31
2017-06-03T01:49:17.072Z,21.32
2017-06-03T01:50:31.274Z,21.31
2017-06-03T01:51:45.526Z,21.31
2017-06-03T01:52:59.434Z,21.3
2017-06-03T01:54:13.673Z,21.3
2017-06-03T01:55:27.673Z,21.3
2017-06-03T01:56:41.598Z,21.3
2017-06-03T01:57:55.553Z,21.29
2017-06-03T01:59:10.236Z,21.29
2017-06-03T02:00:24.565Z,21.31
2017-06-03T02:01:39.194Z,21.32
2017-06-03T02:02:54.196Z,21.36
2017-06-03T02:04:08.499Z,21.38
2017-06-03T02:05:22.811Z,21.4
2017-06-03T02:06:37.105Z,21.39
2017-06-03T02:07:51.456Z,21.39
2017-06-03T02:09:05.849Z,21.4
2017-06-03T02:10:20.917Z,21.39
2017-06-03T02:11:35.508Z,21.4
2017-06-03T02:12:50.085Z,21.41
2017-06-03T02:14:04.671Z,21.43
2017-06-03T02:15:19.242Z,21.43
2017-06-03T02:16:33.135Z,21.42
2017-06-03T02:17:47.036Z,21.44
2017-06-03T02:19:00.919Z,21.43
2017-06-03T02:20:14.814Z,21.45
2017-06-03T02:21:29.034Z,21.46
2017-06-03T02:22:42.944Z,21.48
2017-06-03T02:23:56.827Z,21.5
2017-06-03T02:25:10.712Z,21.54
2017-06-03T02:26:24.747Z,21.56
2017-06-03T02:27:39.259Z,21.57
2017-06-03T02:28:53.482Z,21.56
2017-06-03T02:30:07.350Z,21.54
2017-06-03T02:31:21.274Z,21.53
2017-06-03T02:32:35.189Z,21.53
2017-06-03T02:33:49.581Z,21.53
2017-06-03T02:35:03.796Z,21.54
2017-06-03T02:36:17.783Z,21.56
2017-06-03T02:37:31.699Z,21.56
2017-06-03T02:38:45.580Z,21.55
2017-06-03T02:39:59.774Z,21.57
2017-06-03T02:41:13.727Z,21.57
2017-06-03T02:42:28.745Z,21.57
2017-06-03T02:43:42.655Z,21.56
2017-06-03T02:44:56.621Z,21.56
2017-06-03T02:46:11.425Z,21.56
2017-06-03T02:47:25.358Z,21.54
2017-06-03T02:48:42.333Z,21.51
2017-06-03T02:49:56.213Z,21.49
2017-06-03T02:51:10.104Z,21.49
2017-06-03T02:52:24.431Z,21.49
2017-06-03T02:53:38.304Z,21.5
2017-06-03T02:54:52.226Z,21.51
2017-06-03T02:56:06.754Z,21.52
2017-06-03T02:57:20.721Z,21.51
2017-06-03T02:58:34.885Z,21.49
2017-06-03T02:59:49.007Z,21.48
2017-06-03T03:01:03.351Z,21.47
2017-06-03T03:02:17.589Z,21.46
2017-06-03T03:03:31.535Z,21.46
2017-06-03T03:04:46.688Z,21.45
2017-06-03T03:06:00.570Z,21.46
2017-06-03T03:07:14.812Z,21.46
2017-06-03T03:08:28.729Z,21.45
2017-06-03T03:09:42.685Z,21.44
2017-06-03T03:10:56.629Z,21.43
2017-06-03T03:12:10.502Z,21.4
2017-06-03T03:13:25.045Z,21.39
2017-06-03T03:14:38.957Z,21.38
2017-06-03T03:15:52.852Z,21.39
2017-06-03T03:17:07.362Z,21.39
2017-06-03T03:18:21.261Z,21.39
2017-06-03T03:19:35.561Z,21.38
2017-06-03T03:20:49.453Z,21.37
2017-06-03T03:22:03.335Z,21.36
2017-06-03T03:23:17.503Z,21.35
2017-06-03T03:24:31.763Z,21.34
2017-06-03T03:25:45.724Z,21.33
2017-06-03T03:26:59.621Z,21.34
2017-06-03T03:28:13.498Z,21.33
2017-06-03T03:29:28.053Z,21.35
2017-06-03T03:30:42.002Z,21.35
2017-06-03T03:31:55.918Z,21.36
2017-06-03T03:33:09.836Z,21.37
2017-06-03T03:34:23.733Z,21.38
2017-06-03T03:35:38.318Z,21.41
2017-06-03T03:36:52.220Z,21.44
2017-06-03T03:38:06.123Z,21.45
2017-06-03T03:39:20.001Z,21.47
2017-06-03T03:40:34.412Z,21.51
2017-06-03T03:41:48.970Z,21.52
2017-06-03T03:43:02.906Z,21.54
2017-06-03T03:44:17.548Z,21.57
2017-06-03T03:45:32.226Z,21.6
2017-06-03T03:46:46.531Z,21.63
2017-06-03T03:48:01.093Z,21.68
2017-06-03T03:49:15.063Z,21.73
2017-06-03T03:50:29.770Z,21.76
2017-06-03T03:51:44.334Z,21.79
2017-06-03T03:52:58.565Z,21.82
2017-06-03T03:54:13.192Z,21.92
2017-06-03T03:55:27.521Z,22.15
2017-06-03T03:56:41.470Z,22.38
2017-06-03T03:57:55.710Z,22.47
2017-06-03T03:59:09.583Z,22.44
2017-06-03T04:00:23.880Z,22.51
2017-06-03T04:01:37.837Z,22.69
2017-06-03T04:02:51.762Z,22.94
2017-06-03T04:04:05.644Z,22.99
2017-06-03T04:05:19.508Z,22.93
2017-06-03T04:06:34.255Z,22.83
2017-06-03T04:07:48.447Z,22.87
2017-06-03T04:09:02.335Z,22.82
2017-06-03T04:10:16.239Z,22.76
2017-06-03T04:11:30.189Z,22.72
2017-06-03T04:12:44.441Z,22.83
2017-06-03T04:13:58.355Z,22.87
2017-06-03T04:15:12.257Z,22.77
2017-06-03T04:16:26.137Z,22.67
2017-06-03T04:17:40.113Z,22.59
2017-06-03T04:18:54.742Z,22.53
2017-06-03T04:20:08.719Z,22.48
2017-06-03T04:21:22.989Z,22.45
2017-06-03T04:22:36.936Z,22.42
2017-06-03T04:23:50.907Z,22.39
2017-06-03T04:25:05.073Z,22.37
2017-06-03T04:26:19.022Z,22.36
2017-06-03T04:27:32.956Z,22.35
2017-06-03T04:28:46.881Z,22.34
2017-06-03T04:30:00.788Z,22.35
2017-06-03T04:31:15.112Z,22.37
2017-06-03T04:32:29.429Z,22.38
2017-06-03T04:33:43.693Z,22.39
2017-06-03T04:34:57.577Z,22.41
2017-06-03T04:36:11.437Z,22.41
2017-06-03T04:37:26.016Z,22.4
2017-06-03T04:38:39.930Z,22.39
2017-06-03T04:39:53.929Z,22.42
2017-06-03T04:41:07.813Z,22.45
2017-06-03T04:42:21.746Z,22.47
2017-06-03T04:43:35.678Z,22.5
2017-06-03T04:44:49.603Z,22.54
2017-06-03T04:46:03.503Z,22.59
2017-06-03T04:47:17.558Z,22.62
2017-06-03T04:48:31.544Z,22.67
2017-06-03T04:49:45.481Z,22.72
2017-06-03T04:50:59.371Z,22.8
2017-06-03T04:52:13.260Z,22.87
2017-06-03T04:53:27.764Z,22.94
2017-06-03T04:54:41.654Z,23.02
2017-06-03T04:55:56.210Z,23.08
2017-06-03T04:57:10.133Z,23.15
2017-06-03T04:58:24.044Z,23.24
2017-06-03T04:59:38.078Z,23.31
2017-06-03T05:00:53.212Z,23.38
2017-06-03T05:02:07.456Z,23.47
2017-06-03T05:03:21.359Z,23.52
2017-06-03T05:04:35.257Z,23.53
2017-06-03T05:05:49.241Z,23.54
2017-06-03T05:07:03.224Z,23.54
2017-06-03T05:08:17.402Z,23.53
2017-06-03T05:09:31.300Z,23.52
2017-06-03T05:10:45.277Z,23.51
2017-06-03T05:11:59.610Z,23.51
2017-06-03T05:13:13.515Z,23.52
2017-06-03T05:14:27.704Z,23.55
2017-06-03T05:15:41.688Z,23.58
2017-06-03T05:16:55.719Z,23.66
2017-06-03T05:18:10.074Z,23.7
2017-06-03T05:19:24.002Z,23.73
2017-06-03T05:20:38.375Z,23.72
2017-06-03T05:21:52.330Z,23.76
2017-06-03T05:23:06.554Z,23.78
2017-06-03T05:24:20.775Z,23.8
2017-06-03T05:25:34.660Z,23.81
2017-06-03T05:26:49.354Z,23.83
2017-06-03T05:28:03.362Z,23.84
2017-06-03T05:29:17.253Z,23.89
2017-06-03T05:30:31.166Z,23.93
2017-06-03T05:31:45.117Z,23.96
2017-06-03T05:32:59.305Z,24
2017-06-03T05:34:13.206Z,24.06
2017-06-03T05:35:27.592Z,24.14
2017-06-03T05:36:41.492Z,24.25
2017-06-03T05:37:55.833Z,24.42
2017-06-03T05:39:10.011Z,24.6
2017-06-03T05:40:24.355Z,24.77
2017-06-03T05:41:38.386Z,24.96
2017-06-03T05:42:52.685Z,25.14
2017-06-03T05:44:06.589Z,25.31
2017-06-03T05:45:20.769Z,25.48
2017-06-03T05:46:35.031Z,25.68
2017-06-03T05:47:48.984Z,25.84
2017-06-03T05:49:03.030Z,26.03
2017-06-03T05:50:16.947Z,26.23
2017-06-03T05:51:30.923Z,26.42
2017-06-03T05:52:44.875Z,26.62
2017-06-03T05:53:58.745Z,26.78
2017-06-03T05:55:12.659Z,26.93
2017-06-03T05:56:26.644Z,27.04
2017-06-03T05:57:40.955Z,27.11
2017-06-03T05:58:54.912Z,27.18
2017-06-03T06:00:08.798Z,27.25
2017-06-03T06:01:22.774Z,27.31
2017-06-03T06:02:36.678Z,27.38
2017-06-03T06:03:50.667Z,27.44
2017-06-03T06:05:04.546Z,27.5
2017-06-03T06:06:18.845Z,27.55
2017-06-03T06:07:32.749Z,27.59
2017-06-03T06:08:47.394Z,27.62
2017-06-03T06:10:01.353Z,27.7
2017-06-03T06:11:15.266Z,27.81
2017-06-03T06:12:29.506Z,27.93
2017-06-03T06:13:43.379Z,28
2017-06-03T06:14:57.269Z,28.09
2017-06-03T06:16:11.602Z,28.2
2017-06-03T06:17:25.914Z,28.32
2017-06-03T06:18:39.806Z,28.44
2017-06-03T06:19:53.671Z,28.55
2017-06-03T06:21:07.605Z,28.58
2017-06-03T06:22:22.967Z,28.61
2017-06-03T06:23:36.911Z,28.67
2017-06-03T06:24:51.143Z,28.77
2017-06-03T06:26:05.077Z,28.86
2017-06-03T06:27:19.321Z,28.96
2017-06-03T06:28:33.857Z,29.02
2017-06-03T06:29:47.879Z,29.06
2017-06-03T06:31:01.753Z,29.06
2017-06-03T06:32:16.341Z,28.98
2017-06-03T06:33:31.172Z,28.89
2017-06-03T06:34:45.751Z,28.79
2017-06-03T06:35:59.722Z,28.71
2017-06-03T06:37:13.621Z,28.69
2017-06-03T06:38:27.941Z,28.66
2017-06-03T06:39:41.859Z,28.64
2017-06-03T06:40:56.044Z,28.66
2017-06-03T06:42:10.190Z,28.67
2017-06-03T06:43:24.086Z,28.67
2017-06-03T06:44:37.975Z,28.68
2017-06-03T06:45:51.892Z,28.74
2017-06-03T06:47:06.505Z,28.8
2017-06-03T06:48:20.721Z,28.9
2017-06-03T06:49:34.643Z,29
2017-06-03T06:50:48.559Z,29.13
2017-06-03T06:52:02.451Z,29.26
2017-06-03T06:53:16.700Z,29.36
2017-06-03T06:54:30.573Z,29.46
2017-06-03T06:55:44.479Z,29.53
2017-06-03T06:56:58.756Z,29.59
2017-06-03T06:58:12.709Z,29.63
2017-06-03T06:59:26.983Z,29.67
2017-06-03T07:00:41.342Z,29.7
2017-06-03T07:01:55.412Z,29.72
2017-06-03T07:03:10.073Z,29.76
2017-06-03T07:04:23.988Z,29.79
2017-06-03T07:05:38.931Z,29.83
2017-06-03T07:06:52.837Z,29.85
2017-06-03T07:08:06.789Z,29.84
2017-06-03T07:09:20.865Z,29.82
2017-06-03T07:10:35.139Z,29.83
2017-06-03T07:11:50.450Z,29.84
2017-06-03T07:13:04.428Z,29.82
2017-06-03T07:14:18.333Z,29.79
2017-06-03T07:15:32.356Z,29.76
2017-06-03T07:16:46.634Z,29.73
2017-06-03T07:18:00.887Z,29.71
2017-06-03T07:19:14.834Z,29.67
2017-06-03T07:20:29.434Z,29.65
2017-06-03T07:21:44.042Z,29.61
2017-06-03T07:22:58.274Z,29.57
2017-06-03T07:24:12.582Z,29.57
2017-06-03T07:25:26.978Z,29.6
2017-06-03T07:26:40.992Z,29.62
2017-06-03T07:27:55.238Z,29.65
2017-06-03T07:29:09.208Z,29.71
2017-06-03T07:30:23.390Z,29.75
2017-06-03T07:31:40.869Z,29.79
2017-06-03T07:32:54.783Z,29.83
2017-06-03T07:34:09.199Z,29.9
2017-06-03T07:35:23.620Z,29.95
2017-06-03T07:36:37.860Z,30
2017-06-03T07:37:51.770Z,30.04
2017-06-03T07:39:05.667Z,30.04
2017-06-03T07:40:19.637Z,30.02
2017-06-03T07:41:33.538Z,30.04
2017-06-03T07:42:48.519Z,30.06
2017-06-03T07:44:03.128Z,30.03
2017-06-03T07:45:17.432Z,30.03
2017-06-03T07:46:31.742Z,30.02
2017-06-03T07:47:45.675Z,30.02
2017-06-03T07:49:00.143Z,30.01
2017-06-03T07:50:15.160Z,29.98
2017-06-03T07:51:29.059Z,29.94
2017-06-03T07:52:42.994Z,29.91
2017-06-03T07:53:57.238Z,29.91
2017-06-03T07:55:11.884Z,29.95
2017-06-03T07:56:26.517Z,30
2017-06-03T07:57:40.625Z,30.02
2017-06-03T07:58:54.912Z,30.03
2017-06-03T08:00:08.813Z,30.01
2017-06-03T08:01:23.549Z,29.99
2017-06-03T08:02:37.614Z,29.98
2017-06-03T08:03:51.521Z,29.95
2017-06-03T08:05:05.526Z,29.88
2017-06-03T08:06:19.489Z,29.8
2017-06-03T08:07:34.351Z,29.73
2017-06-03T08:08:48.255Z,29.68
2017-06-03T08:10:02.467Z,29.63
2017-06-03T08:11:16.348Z,29.56
2017-06-03T08:12:30.280Z,29.5
2017-06-03T08:13:44.219Z,29.46
2017-06-03T08:14:58.101Z,29.41
2017-06-03T08:16:11.993Z,29.35
2017-06-03T08:17:26.691Z,29.29
2017-06-03T08:18:40.614Z,29.26
2017-06-03T08:19:55.042Z,29.25
2017-06-03T08:21:10.610Z,29.27
2017-06-03T08:22:24.589Z,29.29
2017-06-03T08:23:38.905Z,29.33
2017-06-03T08:24:54.761Z,29.4
2017-06-03T08:26:09.709Z,29.5
2017-06-03T08:27:25.360Z,29.61
2017-06-03T08:28:40.383Z,29.72
2017-06-03T08:29:55.786Z,29.84
2017-06-03T08:31:10.084Z,29.94
2017-06-03T08:32:25.460Z,30.01
2017-06-03T08:33:40.455Z,30.09
2017-06-03T08:34:56.795Z,30.1
2017-06-03T08:36:10.717Z,30.14
2017-06-03T08:37:25.872Z,30.16
2017-06-03T08:38:40.050Z,30.23
2017-06-03T08:39:54.204Z,30.31
2017-06-03T08:41:08.272Z,30.36
2017-06-03T08:42:23.031Z,30.4
2017-06-03T08:43:37.695Z,30.43
2017-06-03T08:44:51.982Z,30.47
2017-06-03T08:46:07.359Z,30.52
2017-06-03T08:47:21.908Z,30.59
2017-06-03T08:48:37.647Z,30.68
2017-06-03T08:49:51.985Z,30.73
2017-06-03T08:51:06.604Z,30.81
2017-06-03T08:52:21.051Z,30.85
2017-06-03T08:53:36.048Z,30.86
2017-06-03T08:54:51.413Z,30.87
2017-06-03T08:56:06.109Z,30.86
2017-06-03T08:57:21.926Z,30.86
2017-06-03T08:58:37.208Z,30.83
2017-06-03T08:59:52.518Z,30.81
2017-06-03T09:01:07.014Z,30.77
2017-06-03T09:02:21.612Z,30.72
2017-06-03T09:03:36.883Z,30.71
2017-06-03T09:04:51.519Z,30.7
2017-06-03T09:06:06.746Z,30.69
2017-06-03T09:07:20.809Z,30.7
2017-06-03T09:09:00.696Z,30.72
2017-06-03T09:10:15.250Z,30.76
2017-06-03T09:11:30.210Z,30.8
2017-06-03T09:12:45.765Z,30.81
2017-06-03T09:13:59.918Z,30.8
2017-06-03T09:15:14.625Z,30.8
2017-06-03T09:16:29.278Z,30.77
2017-06-03T09:17:44.154Z,30.73
2017-06-03T09:18:58.571Z,30.69
2017-06-03T09:20:13.567Z,30.64
2017-06-03T09:21:27.785Z,30.6
2017-06-03T09:22:42.031Z,30.54
2017-06-03T09:23:55.958Z,30.52
2017-06-03T09:25:10.543Z,30.54
2017-06-03T09:26:24.787Z,30.57
2017-06-03T09:27:39.148Z,30.61
2017-06-03T09:28:53.470Z,30.62
2017-06-03T09:30:08.099Z,30.63
2017-06-03T09:31:22.705Z,30.64
2017-06-03T09:32:36.606Z,30.64
2017-06-03T09:33:51.357Z,30.65
2017-06-03T09:35:05.336Z,30.65
2017-06-03T09:36:19.580Z,30.65
2017-06-03T09:37:34.168Z,30.7
2017-06-03T09:38:48.157Z,30.74
2017-06-03T09:40:02.395Z,30.78
2017-06-03T09:41:16.766Z,30.84
2017-06-03T09:42:30.693Z,30.83
2017-06-03T09:43:44.627Z,30.77
2017-06-03T09:44:58.600Z,30.71
2017-06-03T09:46:12.790Z,30.67
2017-06-03T09:47:26.717Z,30.67
2017-06-03T09:48:40.732Z,30.67
2017-06-03T09:49:55.030Z,30.64
2017-06-03T09:51:09.550Z,30.61
2017-06-03T09:52:24.635Z,30.57
2017-06-03T09:53:38.972Z,30.53
2017-06-03T09:54:53.189Z,30.5
2017-06-03T09:56:07.444Z,30.47
2017-06-03T09:57:22.222Z,30.44
2017-06-03T09:58:36.132Z,30.42
2017-06-03T09:59:50.387Z,30.44
2017-06-03T10:01:05.196Z,30.46
2017-06-03T10:02:19.477Z,30.44
2017-06-03T10:03:33.405Z,30.45
2017-06-03T10:04:47.762Z,30.46
2017-06-03T10:06:01.694Z,30.48
2017-06-03T10:07:15.620Z,30.51
2017-06-03T10:08:29.657Z,30.55
2017-06-03T10:09:43.624Z,30.56
2017-06-03T10:10:57.955Z,30.57
2017-06-03T10:12:12.896Z,30.58
2017-06-03T10:13:27.436Z,30.64
2017-06-03T10:14:41.700Z,30.68
2017-06-03T10:15:55.979Z,30.69
2017-06-03T10:17:09.893Z,30.68
2017-06-03T10:18:23.818Z,30.68
2017-06-03T10:19:37.738Z,30.7
2017-06-03T10:20:51.701Z,30.72
2017-06-03T10:22:06.675Z,30.7
2017-06-03T10:23:21.276Z,30.72
2017-06-03T10:24:35.183Z,30.72
2017-06-03T10:25:49.515Z,30.74
2017-06-03T10:27:03.888Z,30.78
2017-06-03T10:28:17.886Z,30.84
2017-06-03T10:29:32.655Z,30.89
2017-06-03T10:30:46.598Z,30.93
2017-06-03T10:32:01.247Z,30.94
2017-06-03T10:33:15.178Z,30.94
2017-06-03T10:34:29.091Z,30.95
2017-06-03T10:35:43.673Z,30.98
2017-06-03T10:36:58.489Z,30.99
2017-06-03T10:38:12.487Z,31.04
2017-06-03T10:39:26.421Z,31.09
2017-06-03T10:40:40.341Z,31.11
2017-06-03T10:41:55.261Z,31.13
2017-06-03T10:43:10.065Z,31.15
2017-06-03T10:44:23.981Z,31.1
2017-06-03T10:45:38.322Z,31.02
2017-06-03T10:46:52.624Z,30.99
2017-06-03T10:48:07.635Z,30.99
2017-06-03T10:49:21.881Z,31
2017-06-03T10:50:36.462Z,31.05
2017-06-03T10:51:50.991Z,31.13
2017-06-03T10:53:04.942Z,31.2
2017-06-03T10:54:19.529Z,31.23
2017-06-03T10:55:33.913Z,31.21
2017-06-03T10:56:47.831Z,31.17
2017-06-03T10:58:02.567Z,31.15
2017-06-03T10:59:16.447Z,31.12
2017-06-03T11:00:31.424Z,31.11
2017-06-03T11:01:45.322Z,31.13
2017-06-03T11:02:59.609Z,31.17
2017-06-03T11:04:13.547Z,31.19
2017-06-03T11:05:27.473Z,31.18
2017-06-03T11:06:41.751Z,31.19
2017-06-03T11:07:56.035Z,31.17
2017-06-03T11:09:10.360Z,31.16
2017-06-03T11:10:24.255Z,31.18
2017-06-03T11:11:38.599Z,31.24
2017-06-03T11:12:52.825Z,31.26
2017-06-03T11:14:06.784Z,31.27
2017-06-03T11:15:21.108Z,31.25
2017-06-03T11:16:35.385Z,31.22
2017-06-03T11:17:49.292Z,31.15
2017-06-03T22:51:19.477Z,20.51
2017-06-03T22:52:33.598Z,20.47
2017-06-03T22:53:47.767Z,20.46
2017-06-03T22:55:02.257Z,20.4
2017-06-03T22:56:16.319Z,20.35
2017-06-03T22:57:30.640Z,20.34
2017-06-03T22:58:45.369Z,20.32
2017-06-03T22:59:59.775Z,20.3
2017-06-03T23:01:13.865Z,20.29
2017-06-03T23:02:27.978Z,20.29
2017-06-03T23:03:42.574Z,20.3
2017-06-03T23:04:58.288Z,20.31
2017-06-03T23:06:12.427Z,20.32
2017-06-03T23:07:26.527Z,20.33
2017-06-03T23:08:40.954Z,20.38
2017-06-03T23:09:55.257Z,20.46
2017-06-03T23:11:09.532Z,20.51
2017-06-03T23:12:24.786Z,20.56
2017-06-03T23:13:39.678Z,20.58
2017-06-03T23:14:54.623Z,20.59
2017-06-03T23:16:09.274Z,20.59
2017-06-03T23:17:23.743Z,20.56
2017-06-03T23:18:40.110Z,20.53
2017-06-03T23:19:58.019Z,20.52
2017-06-03T23:21:13.266Z,20.46
2017-06-03T23:22:28.453Z,20.37
2017-06-03T23:23:43.696Z,20.27
2017-06-03T23:24:58.789Z,20.22
2017-06-03T23:26:14.079Z,20.23
2017-06-03T23:27:28.592Z,20.25
2017-06-03T23:28:43.465Z,20.28
2017-06-03T23:29:58.021Z,20.28
2017-06-03T23:31:39.669Z,20.31
2017-06-03T23:37:46.456Z,20.48
2017-06-03T23:39:01.592Z,20.48
2017-06-03T23:40:18.702Z,20.49
2017-06-03T23:41:33.407Z,20.47
2017-06-03T23:42:47.548Z,20.47
2017-06-03T23:44:01.838Z,20.43
2017-06-03T23:45:17.909Z,20.44
2017-06-03T23:46:33.589Z,20.46
2017-06-03T23:47:48.947Z,20.46
2017-06-03T23:49:03.406Z,20.47
2017-06-03T23:50:17.844Z,20.47
2017-06-03T23:51:31.941Z,20.46
2017-06-03T23:52:46.466Z,20.46
2017-06-03T23:54:01.680Z,20.44
2017-06-03T23:55:17.241Z,20.39
2017-06-03T23:56:32.010Z,20.39
2017-06-03T23:57:46.674Z,20.38
2017-06-03T23:59:01.130Z,20.36
